Time,TemperatureF,DewpointF,PressureIn,WindDirection,WindDirectionDegrees,WindSpeedMPH,WindSpeedGustMPH,Humidity,HourlyPrecipIn,Conditions,Clouds,dailyrainin,SoftwareType,DateUTC
2014-02-28 00:00:00,70.0,65.0,29.93,NNE,20,13.0,15.0,86,-99.99,,,-99.99,,2014-02-28 05:00:00,
2014-02-28 00:43:00,70.0,65.0,29.93,NNE,20,13.0,15.0,86,-99.99,,,-99.99,,2014-02-28 05:43:00,
2014-02-28 00:53:00,70.0,65.0,29.93,NNE,20,13.0,15.0,86,-99.99,,,-99.99,,2014-02-28 05:53:00,
2014-02-28 01:00:00,71.0,65.0,29.94,North,360,10.0,11.0,83,-99.99,,,-99.99,,2014-02-28 06:00:00,
2014-02-28 01:42:00,71.0,65.0,29.94,North,360,10.0,11.0,83,-99.99,,,-99.99,,2014-02-28 06:42:00,
2014-02-28 01:52:00,71.0,65.0,29.94,North,360,10.0,11.0,83,-99.99,,,-99.99,,2014-02-28 06:52:00,
2014-02-28 02:00:00,71.0,64.0,29.94,North,360,9.0,11.0,79,-99.99,,,-99.99,,2014-02-28 07:00:00,
2014-02-28 02:42:00,71.0,64.0,29.94,North,360,9.0,11.0,79,-99.99,,,-99.99,,2014-02-28 07:42:00,
2014-02-28 02:52:00,71.0,64.0,29.94,North,360,9.0,11.0,79,-99.99,,,-99.99,,2014-02-28 07:52:00,
2014-02-28 03:00:00,69.0,65.0,29.94,NE,40,7.0,8.0,85,-99.99,,,-99.99,,2014-02-28 08:00:00,
2014-02-28 03:42:00,69.0,65.0,29.94,NE,40,7.0,8.0,85,-99.99,,,-99.99,,2014-02-28 08:42:00,
2014-02-28 03:52:00,69.0,65.0,29.94,NE,40,7.0,8.0,85,-99.99,,,-99.99,,2014-02-28 08:52:00,
2014-02-28 04:00:00,70.0,65.0,29.94,NE,40,8.0,9.0,82,-99.99,,,-99.99,,2014-02-28 09:00:00,
2014-02-28 04:42:00,70.0,65.0,29.94,NE,40,8.0,9.0,82,-99.99,,,-99.99,,2014-02-28 09:42:00,
2014-02-28 04:53:00,70.0,65.0,29.94,NE,40,8.0,9.0,82,-99.99,,,-99.99,,2014-02-28 09:53:00,
2014-02-28 05:00:00,70.0,65.0,29.96,North,360,6.0,8.0,82,-99.99,,,-99.99,,2014-02-28 10:00:00,
2014-02-28 05:42:00,70.0,65.0,29.96,North,360,6.0,8.0,82,-99.99,,,-99.99,,2014-02-28 10:42:00,
2014-02-28 05:52:00,70.0,65.0,29.96,North,360,6.0,8.0,82,-99.99,,,-99.99,,2014-02-28 10:52:00,
2014-02-28 06:00:00,69.0,65.0,29.96,East,80,6.0,7.0,85,-99.99,,,-99.99,,2014-02-28 11:00:00,
2014-02-28 06:42:00,69.0,65.0,29.96,East,80,6.0,7.0,85,-99.99,,,-99.99,,2014-02-28 11:42:00,
2014-02-28 06:52:00,69.0,65.0,29.96,East,80,6.0,7.0,85,-99.99,,,-99.99,,2014-02-28 11:52:00,
2014-02-28 07:00:00,69.0,63.0,29.97,ESE,110,10.0,11.0,79,-99.99,,,-99.99,,2014-02-28 12:00:00,
2014-02-28 07:42:00,69.0,63.0,29.97,ESE,110,10.0,11.0,79,-99.99,,,-99.99,,2014-02-28 12:42:00,
2014-02-28 07:52:00,69.0,63.0,29.97,ESE,110,10.0,11.0,79,-99.99,,,-99.99,,2014-02-28 12:52:00,
2014-02-28 08:00:00,69.0,62.0,30.01,East,100,3.0,5.0,77,-99.99,,,-99.99,,2014-02-28 13:00:00,
2014-02-28 08:42:00,69.0,62.0,30.01,East,100,3.0,5.0,77,-99.99,,,-99.99,,2014-02-28 13:42:00,
2014-02-28 08:52:00,69.0,62.0,30.01,East,100,3.0,5.0,77,-99.99,,,-99.99,,2014-02-28 13:52:00,
2014-02-28 09:42:00,69.0,60.0,30.03,East,100,2.0,2.0,73,-99.99,,,-99.99,,2014-02-28 14:42:00,
2014-02-28 10:00:00,71.0,61.0,30.05,NNE,30,3.0,5.0,70,-99.99,,,-99.99,,2014-02-28 15:00:00,
2014-02-28 10:43:00,71.0,61.0,30.05,NNE,30,3.0,5.0,70,-99.99,,,-99.99,,2014-02-28 15:43:00,
2014-02-28 10:53:00,71.0,61.0,30.05,NNE,30,3.0,5.0,70,-99.99,,,-99.99,,2014-02-28 15:53:00,
2014-02-28 11:00:00,69.0,65.0,30.07,North,360,10.0,13.0,86,-99.99,,,-99.99,,2014-02-28 16:00:00,
2014-02-28 11:43:00,69.0,65.0,30.07,North,360,10.0,13.0,86,-99.99,,,-99.99,,2014-02-28 16:43:00,
2014-02-28 11:53:00,69.0,65.0,30.07,North,360,10.0,13.0,86,-99.99,,,-99.99,,2014-02-28 16:53:00,
2014-02-28 12:00:00,70.0,64.0,30.06,North,360,10.0,13.0,81,-99.99,,,-99.99,,2014-02-28 17:00:00,
2014-02-28 12:42:00,70.0,64.0,30.06,North,360,10.0,13.0,81,-99.99,,,-99.99,,2014-02-28 17:42:00,
2014-02-28 12:52:00,70.0,64.0,30.06,North,360,10.0,13.0,81,-99.99,,,-99.99,,2014-02-28 17:52:00,
2014-02-28 13:00:00,70.0,64.0,30.05,North,360,9.0,11.0,81,-99.99,,,-99.99,,2014-02-28 18:00:00,
2014-02-28 13:43:00,70.0,64.0,30.05,North,360,9.0,11.0,81,-99.99,,,-99.99,,2014-02-28 18:43:00,
2014-02-28 13:52:00,70.0,64.0,30.05,North,360,9.0,11.0,81,-99.99,,,-99.99,,2014-02-28 18:52:00,
2014-02-28 14:00:00,70.0,64.0,30.03,North,350,10.0,13.0,80,-99.99,,,-99.99,,2014-02-28 19:00:00,
2014-02-28 14:42:00,70.0,64.0,30.03,North,350,10.0,13.0,80,-99.99,,,-99.99,,2014-02-28 19:42:00,
2014-02-28 14:52:00,70.0,64.0,30.03,North,350,10.0,13.0,80,-99.99,,,-99.99,,2014-02-28 19:52:00,
2014-02-28 15:00:00,70.0,64.0,30.03,North,350,10.0,11.0,80,-99.99,,,-99.99,,2014-02-28 20:00:00,
2014-02-28 15:21:00,70.0,64.0,30.03,North,350,10.0,11.0,80,-99.99,,,-99.99,,2014-02-28 20:21:00,
2014-02-28 15:31:00,70.0,64.0,30.03,North,350,10.0,11.0,80,-99.99,,,-99.99,,2014-02-28 20:31:00,
2014-02-28 15:42:00,70.0,64.0,30.03,North,350,10.0,11.0,80,-99.99,,,-99.99,,2014-02-28 20:42:00,
2014-02-28 15:52:00,70.0,64.0,30.03,North,350,10.0,11.0,80,-99.99,,,-99.99,,2014-02-28 20:52:00,
2014-02-28 16:00:00,70.0,64.0,30.02,North,350,9.0,10.0,80,-99.99,,,-99.99,,2014-02-28 21:00:00,
2014-02-28 16:21:00,70.0,64.0,30.02,North,350,9.0,10.0,80,-99.99,,,-99.99,,2014-02-28 21:21:00,
2014-02-28 16:33:00,70.0,64.0,30.02,North,350,9.0,10.0,80,-99.99,,,-99.99,,2014-02-28 21:33:00,
2014-02-28 16:43:00,70.0,64.0,30.02,North,350,9.0,10.0,80,-99.99,,,-99.99,,2014-02-28 21:43:00,
2014-02-28 16:53:00,70.0,64.0,30.02,North,350,9.0,10.0,80,-99.99,,,-99.99,,2014-02-28 21:53:00,
2014-02-28 17:00:00,69.0,63.0,30.03,North,350,11.0,13.0,81,-99.99,,,-99.99,,2014-02-28 22:00:00,
2014-02-28 17:43:00,69.0,63.0,30.03,North,350,11.0,13.0,81,-99.99,,,-99.99,,2014-02-28 22:43:00,
2014-02-28 17:53:00,69.0,63.0,30.03,North,350,11.0,13.0,81,-99.99,,,-99.99,,2014-02-28 22:53:00,
2014-02-28 18:00:00,69.0,63.0,30.04,NNW,340,10.0,15.0,80,-99.99,,,-99.99,,2014-02-28 23:00:00,
2014-02-28 18:21:00,69.0,63.0,30.04,NNW,340,10.0,15.0,80,-99.99,,,-99.99,,2014-02-28 23:21:00,
2014-02-28 18:32:00,69.0,63.0,30.04,NNW,340,10.0,15.0,80,-99.99,,,-99.99,,2014-02-28 23:32:00,
2014-02-28 18:42:00,69.0,63.0,30.04,NNW,340,10.0,15.0,80,-99.99,,,-99.99,,2014-02-28 23:42:00,
2014-02-28 18:52:00,69.0,63.0,30.04,NNW,340,10.0,15.0,80,-99.99,,,-99.99,,2014-02-28 23:52:00,
2014-02-28 19:00:00,69.0,62.0,30.06,North,350,10.0,11.0,78,-99.99,,,-99.99,,2014-03-01 00:00:00,
2014-02-28 19:42:00,69.0,62.0,30.06,North,350,10.0,11.0,78,-99.99,,,-99.99,,2014-03-01 00:42:00,
2014-02-28 19:52:00,69.0,62.0,30.06,North,350,10.0,11.0,78,-99.99,,,-99.99,,2014-03-01 00:52:00,
2014-02-28 20:00:00,69.0,62.0,30.07,North,350,7.0,8.0,76,-99.99,,,-99.99,,2014-03-01 01:00:00,
2014-02-28 20:22:00,69.0,62.0,30.07,North,350,7.0,8.0,76,-99.99,,,-99.99,,2014-03-01 01:22:00,
2014-02-28 20:32:00,69.0,62.0,30.07,North,350,7.0,8.0,76,-99.99,,,-99.99,,2014-03-01 01:32:00,
2014-02-28 20:42:00,69.0,62.0,30.07,North,350,7.0,8.0,76,-99.99,,,-99.99,,2014-03-01 01:42:00,
2014-02-28 20:52:00,69.0,62.0,30.07,North,350,7.0,8.0,76,-99.99,,,-99.99,,2014-03-01 01:52:00,
2014-02-28 21:00:00,69.0,61.0,30.09,North,350,10.0,13.0,75,-99.99,,,-99.99,,2014-03-01 02:00:00,
2014-02-28 21:42:00,69.0,61.0,30.09,North,350,10.0,13.0,75,-99.99,,,-99.99,,2014-03-01 02:42:00,
2014-02-28 21:52:00,69.0,61.0,30.09,North,350,10.0,13.0,75,-99.99,,,-99.99,,2014-03-01 02:52:00,
2014-02-28 22:00:00,70.0,61.0,30.11,NNW,340,9.0,10.0,73,-99.99,,,-99.99,,2014-03-01 03:00:00,
2014-02-28 22:43:00,70.0,61.0,30.11,NNW,340,9.0,10.0,73,-99.99,,,-99.99,,2014-03-01 03:43:00,
2014-02-28 22:53:00,70.0,61.0,30.11,NNW,340,9.0,10.0,73,-99.99,,,-99.99,,2014-03-01 03:53:00,
2014-02-28 23:00:00,70.0,61.0,30.11,NNW,340,10.0,11.0,73,-99.99,,,-99.99,,2014-03-01 04:00:00,
2014-02-28 23:23:00,70.0,61.0,30.11,NNW,340,10.0,11.0,73,-99.99,,,-99.99,,2014-03-01 04:23:00,
2014-02-28 23:33:00,70.0,61.0,30.11,NNW,340,10.0,11.0,73,-99.99,,,-99.99,,2014-03-01 04:33:00,
2014-02-28 23:42:00,70.0,61.0,30.11,NNW,340,10.0,11.0,73,-99.99,,,-99.99,,2014-03-01 04:42:00,
2014-02-28 23:52:00,70.0,61.0,30.11,NNW,340,10.0,11.0,73,-99.99,,,-99.99,,2014-03-01 04:52:00,